Time;durP1;ratioP1;P1;durP2;ratioP2;P2;SDS_P1;SDS_P2;PMS_P1;PMS_P2;Temp;Humidity;BMP_temperature;BMP_pressure;BME280_temperature;BME280_humidity;BME280_pressure;Samples;Min_cycle;Max_cycle;Signal;HPM_P1;HPM_P2
2023/04/24 00:01:00;;;;;;;;;;;11.40;99.90;;;;;;5095556;28;19912;-64
2023/04/24 00:03:27;;;;;;;;;;;11.40;99.90;;;;;;5096421;28;20350;-64
2023/04/24 00:05:53;;;;;;;;;;;11.40;99.90;;;;;;5096542;28;19919;-64
2023/04/24 00:08:19;;;;;;;;;;;11.40;99.90;;;;;;5096339;28;19912;-65
2023/04/24 00:10:45;;;;;;;;;;;11.40;99.90;;;;;;5096294;28;20395;-64
2023/04/24 00:13:11;;;;;;;;;;;11.50;99.90;;;;;;5096133;28;19965;-64
2023/04/24 00:15:37;;;;;;;;;;;11.50;99.90;;;;;;5096218;28;19919;-64
2023/04/24 00:18:03;;;;;;;;;;;11.40;99.90;;;;;;5096101;28;19920;-65
2023/04/24 00:20:29;;;;;;;;;;;11.30;99.90;;;;;;5096204;28;19912;-64
2023/04/24 00:22:55;;;;;;;;;;;11.30;99.90;;;;;;5096124;28;20346;-64
2023/04/24 00:25:21;;;;;;;;;;;11.30;99.90;;;;;;5096141;28;20353;-64
2023/04/24 00:27:47;;;;;;;;;;;11.20;99.90;;;;;;5095897;28;19943;-64
2023/04/24 00:30:13;;;;;;;;;;;11.20;99.90;;;;;;5096054;28;20357;-64
2023/04/24 00:32:38;;;;;;;;;;;11.20;99.90;;;;;;5096036;28;20028;-64
2023/04/24 00:35:05;;;;;;;;;;;11.10;99.90;;;;;;5096031;28;19920;-64
2023/04/24 00:37:31;;;;;;;;;;;11.20;99.90;;;;;;5095898;28;20019;-64
2023/04/24 00:39:57;;;;;;;;;;;11.20;99.90;;;;;;5095680;28;19944;-64
2023/04/24 00:42:23;;;;;;;;;;;11.20;99.90;;;;;;5095789;28;20444;-64
2023/04/24 00:44:49;;;;;;;;;;;11.20;99.90;;;;;;5095910;28;19912;-64
2023/04/24 00:47:15;;;;;;;;;;;11.20;99.90;;;;;;5095611;28;19912;-64
2023/04/24 00:49:41;;;;;;;;;;;11.20;99.90;;;;;;5095695;28;19908;-64
2023/04/24 00:52:08;;;;;;;;;;;11.20;99.90;;;;;;5095595;28;20292;-64
2023/04/24 00:54:34;;;;;;;;;;;11.10;99.90;;;;;;5095486;28;19996;-64
2023/04/24 00:57:01;;;;;;;;;;;11.10;99.90;;;;;;5095313;28;20579;-64
2023/04/24 00:59:27;;;;;;;;;;;11.10;99.90;;;;;;5095576;28;19912;-64
2023/04/24 01:01:53;;;;;;;;;;;11.10;99.90;;;;;;5077233;28;19958;-64
2023/04/24 01:04:20;;;;;;;;;;;11.10;99.90;;;;;;5095320;28;19934;-64
2023/04/24 01:06:48;;;;;;;;;;;11.10;99.90;;;;;;5077247;28;19916;-64
2023/04/24 01:09:14;;;;;;;;;;;11.10;99.90;;;;;;5095172;28;19912;-64
2023/04/24 01:11:41;;;;;;;;;;;11.10;99.90;;;;;;5095300;28;19912;-64
2023/04/24 01:14:07;;;;;;;;;;;11.10;99.90;;;;;;5077445;28;20003;-64
2023/04/24 01:16:33;;;;;;;;;;;11.00;99.90;;;;;;5095049;28;19975;-64
2023/04/24 01:19:00;;;;;;;;;;;11.10;99.90;;;;;;5077183;28;20293;-64
2023/04/24 01:21:27;;;;;;;;;;;11.10;99.90;;;;;;5095402;28;19912;-64
2023/04/24 01:23:53;;;;;;;;;;;11.10;99.90;;;;;;5095029;28;19922;-64
2023/04/24 01:26:19;;;;;;;;;;;11.10;99.90;;;;;;5095105;28;20374;-64
2023/04/24 01:28:46;;;;;;;;;;;11.10;99.90;;;;;;5095206;28;19923;-64
2023/04/24 01:31:11;;;;;;;;;;;11.10;99.90;;;;;;5094962;28;19908;-64
2023/04/24 01:33:37;;;;;;;;;;;11.10;99.90;;;;;;5110820;28;19938;-64
2023/04/24 01:36:03;;;;;;;;;;;11.10;99.90;;;;;;5076796;28;20389;-64
2023/04/24 01:38:29;;;;;;;;;;;11.00;99.90;;;;;;5094769;28;20022;-64
2023/04/24 01:40:55;;;;;;;;;;;11.00;99.90;;;;;;5077001;28;19911;-64
2023/04/24 01:43:21;;;;;;;;;;;11.00;99.90;;;;;;5076833;28;19944;-64
2023/04/24 01:45:47;;;;;;;;;;;11.00;99.90;;;;;;5094978;28;20002;-64
2023/04/24 01:48:13;;;;;;;;;;;10.90;99.90;;;;;;5076928;28;19954;-64
2023/04/24 01:50:39;;;;;;;;;;;10.90;99.90;;;;;;5094946;28;20428;-64
2023/04/24 01:53:05;;;;;;;;;;;10.90;99.90;;;;;;5095018;28;20011;-64
2023/04/24 01:55:31;;;;;;;;;;;10.80;99.90;;;;;;5094742;28;19970;-64
2023/04/24 01:57:57;;;;;;;;;;;10.80;99.90;;;;;;5076726;28;19951;-64
2023/04/24 02:00:24;;;;;;;;;;;10.70;99.90;;;;;;5094509;28;20307;-64
2023/04/24 02:02:51;;;;;;;;;;;10.70;99.90;;;;;;5076496;28;19972;-64
2023/04/24 02:05:17;;;;;;;;;;;10.60;99.90;;;;;;5094837;28;19924;-64
2023/04/24 02:07:43;;;;;;;;;;;10.70;99.90;;;;;;5094719;28;19912;-64
2023/04/24 02:10:09;;;;;;;;;;;10.60;99.90;;;;;;5094832;28;19959;-64
2023/04/24 02:12:35;;;;;;;;;;;10.60;99.90;;;;;;5094751;28;20010;-64
2023/04/24 02:15:02;;;;;;;;;;;10.60;99.90;;;;;;5094551;28;19968;-64
2023/04/24 02:17:27;;;;;;;;;;;10.50;99.90;;;;;;5094982;28;19917;-64
2023/04/24 02:19:53;;;;;;;;;;;10.50;99.90;;;;;;5094615;28;19919;-64
2023/04/24 02:22:19;;;;;;;;;;;10.50;99.90;;;;;;5094704;28;20395;-64
2023/04/24 02:24:45;;;;;;;;;;;10.50;99.90;;;;;;5098683;28;19912;-64
2023/04/24 02:27:13;;;;;;;;;;;10.50;99.90;;;;;;5080197;28;20008;-64
2023/04/24 02:29:39;;;;;;;;;;;10.40;99.90;;;;;;5098482;28;20388;-64
2023/04/24 02:32:05;;;;;;;;;;;10.40;99.90;;;;;;5080342;28;19915;-64
2023/04/24 02:34:31;;;;;;;;;;;10.30;99.90;;;;;;5080135;28;19920;-64
2023/04/24 02:36:59;;;;;;;;;;;10.30;99.90;;;;;;5080093;28;19947;-64
2023/04/24 02:39:25;;;;;;;;;;;10.30;99.90;;;;;;5080090;28;20406;-64
2023/04/24 02:41:52;;;;;;;;;;;10.30;99.90;;;;;;5079929;28;19936;-64
2023/04/24 02:44:17;;;;;;;;;;;10.20;99.90;;;;;;5098123;28;19928;-64
2023/04/24 02:46:43;;;;;;;;;;;10.10;99.90;;;;;;5079991;28;19912;-64
2023/04/24 02:49:09;;;;;;;;;;;10.00;99.90;;;;;;5098075;28;19912;-64
2023/04/24 02:51:37;;;;;;;;;;;10.00;99.90;;;;;;5079737;28;19919;-64
2023/04/24 02:54:03;;;;;;;;;;;10.00;99.90;;;;;;5097977;28;19912;-64
2023/04/24 02:56:29;;;;;;;;;;;10.00;99.90;;;;;;5097667;28;20413;-64
2023/04/24 02:58:57;;;;;;;;;;;10.20;99.90;;;;;;5079822;28;20338;-64
2023/04/24 03:01:23;;;;;;;;;;;10.10;99.90;;;;;;5079760;28;19949;-64
2023/04/24 03:03:49;;;;;;;;;;;10.30;99.90;;;;;;5097521;28;19919;-64
2023/04/24 03:06:15;;;;;;;;;;;10.20;99.90;;;;;;5097700;28;20319;-64
2023/04/24 03:08:41;;;;;;;;;;;10.20;99.90;;;;;;5097679;28;19916;-64
2023/04/24 03:11:06;;;;;;;;;;;10.20;99.90;;;;;;5097912;28;19916;-64
2023/04/24 03:13:32;;;;;;;;;;;10.20;99.90;;;;;;5079497;28;19952;-64
2023/04/24 03:15:58;;;;;;;;;;;10.20;99.90;;;;;;5079295;28;20388;-64
2023/04/24 03:18:24;;;;;;;;;;;10.30;99.90;;;;;;5097314;28;19912;-64
2023/04/24 03:20:51;;;;;;;;;;;10.30;99.90;;;;;;5079301;28;19919;-64
2023/04/24 03:23:17;;;;;;;;;;;10.30;99.90;;;;;;5079282;28;19920;-64
2023/04/24 03:25:45;;;;;;;;;;;10.50;99.90;;;;;;5079128;28;19912;-64
2023/04/24 03:28:12;;;;;;;;;;;10.60;99.90;;;;;;5079111;28;19933;-64
2023/04/24 03:30:41;;;;;;;;;;;10.50;99.90;;;;;;5078945;28;20293;-64
2023/04/24 03:33:08;;;;;;;;;;;10.60;99.90;;;;;;5079124;28;20289;-64
2023/04/24 03:35:38;;;;;;;;;;;10.60;99.90;;;;;;5077928;28;19977;-64
2023/04/24 03:38:08;;;;;;;;;;;10.70;99.90;;;;;;5078886;28;19923;-64
2023/04/24 03:40:53;;;;;;;;;;;10.60;99.90;;;;;;5097508;28;20021;-64
2023/04/24 03:43:42;;;;;;;;;;;10.60;99.90;;;;;;5088516;28;19912;-64
2023/04/24 03:46:09;;;;;;;;;;;10.60;99.90;;;;;;5078863;28;19935;-64
2023/04/24 03:48:39;;;;;;;;;;;10.60;99.90;;;;;;5078660;28;19912;-64
2023/04/24 03:51:07;;;;;;;;;;;10.50;99.90;;;;;;5078799;28;19918;-64
2023/04/24 03:53:35;;;;;;;;;;;10.50;99.90;;;;;;5078585;28;19946;-64
2023/04/24 03:56:01;;;;;;;;;;;10.60;99.90;;;;;;5096454;28;20107;-64
2023/04/24 03:58:29;;;;;;;;;;;10.70;99.90;;;;;;5078597;28;19919;-64
2023/04/24 04:00:57;;;;;;;;;;;10.80;99.90;;;;;;5078501;28;20428;-64
2023/04/24 04:03:44;;;;;;;;;;;10.80;99.90;;;;;;5078450;28;19919;-64
2023/04/24 04:06:11;;;;;;;;;;;10.80;99.90;;;;;;5096540;28;19912;-64
2023/04/24 04:08:37;;;;;;;;;;;10.90;99.90;;;;;;5096362;28;19912;-64
2023/04/24 04:11:03;;;;;;;;;;;10.80;99.90;;;;;;5078255;28;19958;-64
2023/04/24 04:13:29;;;;;;;;;;;10.80;99.90;;;;;;5078241;28;19918;-64
2023/04/24 04:15:56;;;;;;;;;;;10.80;99.90;;;;;;5077962;28;19959;-64
2023/04/24 04:18:21;;;;;;;;;;;10.90;99.90;;;;;;5096483;28;19912;-64
2023/04/24 04:20:47;;;;;;;;;;;10.90;99.90;;;;;;5077927;28;20289;-64
2023/04/24 04:23:14;;;;;;;;;;;11.00;99.90;;;;;;5078067;28;19961;-64
2023/04/24 04:26:00;;;;;;;;;;;11.00;99.90;;;;;;5096253;28;19922;-64
2023/04/24 04:28:39;;;;;;;;;;;11.10;99.90;;;;;;5077856;28;20001;-64
2023/04/24 04:31:05;;;;;;;;;;;11.20;99.90;;;;;;5077768;28;19912;-64
2023/04/24 04:33:31;;;;;;;;;;;11.20;99.90;;;;;;5077950;28;19916;-64
2023/04/24 04:35:57;;;;;;;;;;;11.30;99.90;;;;;;5077821;28;19919;-64
2023/04/24 04:38:26;;;;;;;;;;;11.40;99.90;;;;;;5094214;28;19981;-64
2023/04/24 04:41:07;;;;;;;;;;;11.30;99.90;;;;;;5077881;28;19982;-64
2023/04/24 04:43:34;;;;;;;;;;;11.50;99.90;;;;;;5077574;28;19912;-64
2023/04/24 04:46:00;;;;;;;;;;;11.60;99.90;;;;;;5095353;28;19920;-64
2023/04/24 04:48:31;;;;;;;;;;;11.60;99.90;;;;;;5095846;28;19934;-64
2023/04/24 04:50:59;;;;;;;;;;;11.60;99.90;;;;;;5077549;28;19919;-64
2023/04/24 04:53:26;;;;;;;;;;;11.70;99.90;;;;;;5077453;28;19923;-64
2023/04/24 04:55:52;;;;;;;;;;;11.70;99.90;;;;;;5077248;28;20274;-64
2023/04/24 04:58:19;;;;;;;;;;;11.80;99.90;;;;;;5095528;28;19923;-64
2023/04/24 05:00:47;;;;;;;;;;;11.90;99.90;;;;;;5077424;28;20255;-64
2023/04/24 05:03:20;;;;;;;;;;;12.00;99.90;;;;;;5077093;28;19912;-64
2023/04/24 05:05:47;;;;;;;;;;;12.20;99.90;;;;;;5077225;28;20377;-64
2023/04/24 05:08:16;;;;;;;;;;;12.30;99.90;;;;;;5077125;28;19923;-64
2023/04/24 05:10:41;;;;;;;;;;;12.30;99.90;;;;;;5075744;28;20006;-64
2023/04/24 05:13:07;;;;;;;;;;;12.30;99.90;;;;;;5076510;28;20042;-64
2023/04/24 05:15:34;;;;;;;;;;;12.40;99.90;;;;;;5094314;28;19916;-64
2023/04/24 05:18:00;;;;;;;;;;;12.50;99.90;;;;;;5076978;28;19920;-64
2023/04/24 05:20:27;;;;;;;;;;;12.50;99.90;;;;;;5077809;28;19908;-64
2023/04/24 05:22:54;;;;;;;;;;;12.60;99.90;;;;;;5077695;28;19912;-64
2023/04/24 05:25:21;;;;;;;;;;;12.60;99.90;;;;;;5076630;28;19924;-64
2023/04/24 05:27:57;;;;;;;;;;;12.60;99.90;;;;;;5093532;28;19912;-65
2023/04/24 05:30:23;;;;;;;;;;;12.70;99.90;;;;;;5091945;28;19912;-64
2023/04/24 05:32:49;;;;;;;;;;;12.80;99.90;;;;;;5062710;28;19912;-64
2023/04/24 05:35:15;;;;;;;;;;;12.80;99.90;;;;;;5074818;28;19943;-64
2023/04/24 05:37:41;;;;;;;;;;;12.90;99.90;;;;;;5101230;28;19961;-53
2023/04/24 05:40:08;;;;;;;;;;;12.90;99.90;;;;;;5069622;28;19916;-53
2023/04/24 05:42:34;;;;;;;;;;;12.80;99.90;;;;;;5076751;28;19919;-53
2023/04/24 05:45:00;;;;;;;;;;;12.90;99.90;;;;;;5076638;28;19975;-53
2023/04/24 05:47:26;;;;;;;;;;;12.90;99.90;;;;;;5076588;28;19919;-53
2023/04/24 05:49:53;;;;;;;;;;;12.90;99.90;;;;;;5076800;28;20388;-53
2023/04/24 05:52:19;;;;;;;;;;;12.80;99.90;;;;;;5073313;28;19914;-53
2023/04/24 05:54:47;;;;;;;;;;;12.90;99.90;;;;;;5080759;28;19916;-54
2023/04/24 05:57:18;;;;;;;;;;;12.90;99.90;;;;;;5071144;28;19933;-53
2023/04/24 05:59:57;;;;;;;;;;;12.90;99.90;;;;;;5081615;28;19962;-53
2023/04/24 06:02:25;;;;;;;;;;;12.90;99.90;;;;;;5077319;28;20258;-53
2023/04/24 06:04:51;;;;;;;;;;;12.90;99.90;;;;;;5080034;28;19920;-53
2023/04/24 06:07:19;;;;;;;;;;;12.90;99.90;;;;;;5076053;28;19916;-53
2023/04/24 06:09:45;;;;;;;;;;;12.90;99.90;;;;;;5080159;28;20002;-53
2023/04/24 06:12:11;;;;;;;;;;;12.90;99.90;;;;;;5079447;28;19915;-53
2023/04/24 06:14:49;;;;;;;;;;;12.80;99.90;;;;;;5077847;28;20348;-53
2023/04/24 06:17:23;;;;;;;;;;;12.90;99.90;;;;;;5079424;28;20414;-53
2023/04/24 06:19:50;;;;;;;;;;;13.00;99.90;;;;;;5078164;28;19919;-53
2023/04/24 06:22:16;;;;;;;;;;;12.90;99.90;;;;;;5076874;28;19916;-53
2023/04/24 06:24:41;;;;;;;;;;;13.00;99.90;;;;;;5098042;28;19916;-53
2023/04/24 06:27:07;;;;;;;;;;;13.00;99.90;;;;;;5095575;28;20015;-53
2023/04/24 06:29:33;;;;;;;;;;;13.00;99.90;;;;;;5097074;28;19923;-53
2023/04/24 06:31:59;;;;;;;;;;;13.10;99.90;;;;;;5080954;28;19920;-53
2023/04/24 06:34:25;;;;;;;;;;;13.20;99.90;;;;;;5081509;28;20373;-53
2023/04/24 06:36:51;;;;;;;;;;;13.20;99.90;;;;;;5097330;28;19981;-53
2023/04/24 06:39:17;;;;;;;;;;;13.20;99.90;;;;;;5097268;28;19912;-53
2023/04/24 06:41:42;;;;;;;;;;;13.10;99.90;;;;;;5097106;28;19912;-53
2023/04/24 06:44:18;;;;;;;;;;;13.00;99.90;;;;;;5095584;28;20288;-53
2023/04/24 06:46:44;;;;;;;;;;;13.10;99.90;;;;;;5097355;28;20006;-53
2023/04/24 06:49:09;;;;;;;;;;;13.10;99.90;;;;;;5097719;28;19908;-54
2023/04/24 06:51:35;;;;;;;;;;;13.20;99.90;;;;;;5097720;28;19920;-53
2023/04/24 06:54:01;;;;;;;;;;;13.20;99.90;;;;;;5097414;28;19930;-53
2023/04/24 06:56:28;;;;;;;;;;;13.30;99.90;;;;;;5097150;28;20320;-53
2023/04/24 06:58:55;;;;;;;;;;;13.40;99.90;;;;;;5097488;28;19920;-53
2023/04/24 07:01:20;;;;;;;;;;;13.50;99.90;;;;;;5097103;28;19912;-53
2023/04/24 07:03:46;;;;;;;;;;;13.40;99.90;;;;;;5097393;28;19973;-53
2023/04/24 07:06:12;;;;;;;;;;;13.40;99.90;;;;;;5097489;28;19919;-54
2023/04/24 07:08:38;;;;;;;;;;;13.60;99.90;;;;;;5096793;28;19919;-53
2023/04/24 07:11:04;;;;;;;;;;;13.60;99.90;;;;;;5097434;28;20074;-53
2023/04/24 07:13:30;;;;;;;;;;;13.70;99.90;;;;;;5088750;28;19943;-53
2023/04/24 07:15:56;;;;;;;;;;;13.80;99.90;;;;;;5082164;28;19920;-53
2023/04/24 07:18:22;;;;;;;;;;;13.80;99.90;;;;;;5087287;28;19931;-53
2023/04/24 07:20:49;;;;;;;;;;;13.70;99.90;;;;;;5094220;28;19951;-53
2023/04/24 07:23:15;;;;;;;;;;;13.70;99.90;;;;;;5096524;28;19917;-53
2023/04/24 07:25:42;;;;;;;;;;;13.70;99.90;;;;;;5094449;28;19919;-53
2023/04/24 07:28:08;;;;;;;;;;;13.80;99.90;;;;;;5096752;28;20277;-54
2023/04/24 07:30:34;;;;;;;;;;;13.80;99.90;;;;;;5097356;28;19923;-53
2023/04/24 07:33:00;;;;;;;;;;;14.00;99.90;;;;;;5097857;28;19912;-54
2023/04/24 07:35:26;;;;;;;;;;;14.10;99.90;;;;;;5095658;28;19933;-53
2023/04/24 07:37:55;;;;;;;;;;;14.20;99.90;;;;;;5092274;28;19920;-53
2023/04/24 07:40:21;;;;;;;;;;;14.30;99.90;;;;;;5096694;28;19918;-53
2023/04/24 07:42:48;;;;;;;;;;;14.40;99.90;;;;;;5096690;28;19962;-53
2023/04/24 07:45:14;;;;;;;;;;;14.40;99.90;;;;;;5095815;28;20243;-53
2023/04/24 07:47:45;;;;;;;;;;;14.50;99.90;;;;;;5096565;28;20000;-53
2023/04/24 07:50:11;;;;;;;;;;;14.60;99.90;;;;;;5096941;28;19966;-53
2023/04/24 07:52:37;;;;;;;;;;;14.70;99.90;;;;;;5096259;28;19951;-54
2023/04/24 07:55:03;;;;;;;;;;;14.90;99.90;;;;;;5096407;28;19930;-54
2023/04/24 07:57:29;;;;;;;;;;;15.00;99.90;;;;;;5096337;28;20379;-53
2023/04/24 08:00:13;;;;;;;;;;;15.20;99.90;;;;;;5096478;28;19912;-54
2023/04/24 08:02:39;;;;;;;;;;;15.30;99.90;;;;;;5088327;28;20342;-54
2023/04/24 08:05:05;;;;;;;;;;;15.50;99.90;;;;;;5096203;28;19912;-54
2023/04/24 08:07:31;;;;;;;;;;;15.70;99.90;;;;;;5095991;28;19912;-54
2023/04/24 08:09:57;;;;;;;;;;;15.80;99.90;;;;;;5096087;28;20246;-54
2023/04/24 08:12:23;;;;;;;;;;;16.00;99.90;;;;;;5095687;28;19920;-54
2023/04/24 08:14:48;;;;;;;;;;;16.20;99.90;;;;;;5096061;28;19942;-54
2023/04/24 08:17:14;;;;;;;;;;;16.30;99.90;;;;;;5095996;28;19950;-54
2023/04/24 08:19:44;;;;;;;;;;;16.40;99.90;;;;;;5096014;28;19971;-54
2023/04/24 08:22:10;;;;;;;;;;;16.50;99.90;;;;;;5095588;28;19912;-54
2023/04/24 08:24:36;;;;;;;;;;;16.70;99.90;;;;;;5095919;28;19913;-54
2023/04/24 08:27:12;;;;;;;;;;;16.80;99.90;;;;;;5096237;28;19927;-54
2023/04/24 08:29:38;;;;;;;;;;;16.90;99.90;;;;;;5095930;28;19919;-54
2023/04/24 08:32:04;;;;;;;;;;;17.10;99.90;;;;;;5095524;28;19908;-54
2023/04/24 08:34:30;;;;;;;;;;;17.20;99.90;;;;;;5095709;28;20362;-54
2023/04/24 08:36:56;;;;;;;;;;;17.30;99.90;;;;;;5095700;28;19916;-54
2023/04/24 08:39:21;;;;;;;;;;;17.40;99.90;;;;;;5095688;28;20007;-54
2023/04/24 08:41:48;;;;;;;;;;;17.50;99.90;;;;;;5095901;28;19912;-53
2023/04/24 08:44:15;;;;;;;;;;;17.60;99.90;;;;;;5093985;28;19962;-54
2023/04/24 08:46:48;;;;;;;;;;;17.70;99.90;;;;;;5095430;28;19916;-53
2023/04/24 08:49:16;;;;;;;;;;;17.80;99.90;;;;;;5095605;28;19913;-54
2023/04/24 08:51:41;;;;;;;;;;;17.90;99.90;;;;;;5095307;28;19961;-54
2023/04/24 08:54:08;;;;;;;;;;;18.00;99.90;;;;;;5095273;28;19912;-54
2023/04/24 08:56:34;;;;;;;;;;;18.10;99.90;;;;;;5095227;28;19920;-54
2023/04/24 08:59:00;;;;;;;;;;;18.20;99.90;;;;;;5094778;28;19919;-53
2023/04/24 09:01:26;;;;;;;;;;;18.30;99.90;;;;;;5094702;28;19950;-54
2023/04/24 09:03:53;;;;;;;;;;;18.50;99.90;;;;;;5094796;28;19916;-54
2023/04/24 09:06:19;;;;;;;;;;;18.60;97.20;;;;;;5094518;28;20366;-54
2023/04/24 09:08:45;;;;;;;;;;;18.70;96.20;;;;;;5094029;28;19920;-54
2023/04/24 09:11:11;;;;;;;;;;;18.80;95.60;;;;;;5094443;28;20377;-54
2023/04/24 09:13:37;;;;;;;;;;;19.00;94.60;;;;;;5093250;28;19973;-54
2023/04/24 09:16:03;;;;;;;;;;;19.10;93.20;;;;;;5091847;28;20408;-54
2023/04/24 09:18:29;;;;;;;;;;;19.10;93.40;;;;;;5092024;28;20364;-54
2023/04/24 09:21:02;;;;;;;;;;;19.20;93.10;;;;;;5091508;28;19920;-54
2023/04/24 09:23:28;;;;;;;;;;;19.20;91.90;;;;;;5086511;28;19961;-54
2023/04/24 09:25:55;;;;;;;;;;;19.30;90.60;;;;;;5094966;28;20284;-54
2023/04/24 09:28:25;;;;;;;;;;;19.40;89.10;;;;;;5094526;28;19912;-54
2023/04/24 09:31:02;;;;;;;;;;;19.40;87.20;;;;;;5095040;28;19916;-54
2023/04/24 09:33:27;;;;;;;;;;;19.50;86.40;;;;;;5094875;28;19913;-54
2023/04/24 09:35:53;;;;;;;;;;;19.60;83.40;;;;;;5095031;28;19911;-54
2023/04/24 09:38:30;;;;;;;;;;;19.70;85.50;;;;;;5094884;28;20007;-54
2023/04/24 09:40:58;;;;;;;;;;;19.80;84.30;;;;;;5094584;28;19934;-54
2023/04/24 09:43:26;;;;;;;;;;;19.60;75.80;;;;;;5092895;28;19912;-54
2023/04/24 09:45:55;;;;;;;;;;;19.70;76.50;;;;;;5094575;28;20297;-54
2023/04/24 09:48:29;;;;;;;;;;;19.80;75.80;;;;;;5094898;28;19912;-54
2023/04/24 09:50:55;;;;;;;;;;;19.80;74.10;;;;;;5088925;28;20440;-54
2023/04/24 09:53:24;;;;;;;;;;;19.80;72.10;;;;;;5087125;28;20023;-54
2023/04/24 09:55:50;;;;;;;;;;;19.80;73.50;;;;;;5117729;28;19928;-54
2023/04/24 09:58:16;;;;;;;;;;;19.70;71.90;;;;;;5094691;28;19920;-54
2023/04/24 10:00:42;;;;;;;;;;;19.70;71.50;;;;;;5094495;28;19920;-53
2023/04/24 10:03:08;;;;;;;;;;;19.70;69.00;;;;;;5094757;28;19920;-54
2023/04/24 10:05:35;;;;;;;;;;;19.90;73.20;;;;;;5094260;28;19919;-54
2023/04/24 10:08:05;;;;;;;;;;;19.70;71.30;;;;;;5092919;28;20388;-54
2023/04/24 10:10:32;;;;;;;;;;;19.80;70.70;;;;;;5094342;28;20018;-54
2023/04/24 10:12:58;;;;;;;;;;;19.90;67.00;;;;;;5093604;28;20314;-53
2023/04/24 10:15:25;;;;;;;;;;;20.00;69.00;;;;;;5090935;28;19924;-53
2023/04/24 10:17:54;;;;;;;;;;;20.30;72.60;;;;;;5094309;28;19955;-53
2023/04/24 10:20:24;;;;;;;;;;;20.40;67.80;;;;;;5087596;28;19912;-53
2023/04/24 10:22:51;;;;;;;;;;;20.50;68.90;;;;;;5092520;28;19916;-53
2023/04/24 10:25:21;;;;;;;;;;;20.80;72.50;;;;;;5091529;28;19912;-53
2023/04/24 10:27:47;;;;;;;;;;;21.00;68.50;;;;;;5093815;28;20012;-53
2023/04/24 10:30:13;;;;;;;;;;;21.20;67.00;;;;;;5094253;28;19912;-53
2023/04/24 10:32:39;;;;;;;;;;;21.10;65.30;;;;;;5076689;28;19926;-53
2023/04/24 10:35:08;;;;;;;;;;;21.10;68.00;;;;;;5094460;28;20289;-53
2023/04/24 10:37:40;;;;;;;;;;;21.40;70.70;;;;;;5094310;28;19916;-53
2023/04/24 10:40:08;;;;;;;;;;;21.30;66.00;;;;;;5094110;28;20004;-53
2023/04/24 10:42:34;;;;;;;;;;;21.40;66.30;;;;;;5094151;28;19916;-53
2023/04/24 10:45:04;;;;;;;;;;;21.70;66.80;;;;;;5096977;28;20362;-53
2023/04/24 10:47:39;;;;;;;;;;;21.70;62.60;;;;;;5097482;28;19965;-53
2023/04/24 10:50:07;;;;;;;;;;;21.70;63.40;;;;;;5094705;28;19919;-53
2023/04/24 10:52:51;;;;;;;;;;;22.20;68.30;;;;;;5097877;28;19916;-53
2023/04/24 10:55:36;;;;;;;;;;;22.40;61.90;;;;;;5097380;28;19943;-54
2023/04/24 10:58:03;;;;;;;;;;;22.70;62.30;;;;;;5097355;28;19973;-53
2023/04/24 11:00:29;;;;;;;;;;;22.60;61.20;;;;;;5097812;28;19912;-53
2023/04/24 11:02:55;;;;;;;;;;;22.60;59.80;;;;;;5091960;28;20000;-53
2023/04/24 11:05:21;;;;;;;;;;;22.50;60.20;;;;;;5088481;28;19920;-53
2023/04/24 11:08:06;;;;;;;;;;;22.00;60.30;;;;;;5093221;28;20010;-53
2023/04/24 11:10:32;;;;;;;;;;;22.20;60.60;;;;;;5097116;28;19942;-53
2023/04/24 11:12:57;;;;;;;;;;;22.40;66.50;;;;;;5093761;28;19916;-53
2023/04/24 11:15:23;;;;;;;;;;;22.60;59.90;;;;;;5093671;28;19918;-53
2023/04/24 11:17:49;;;;;;;;;;;22.60;61.30;;;;;;5096309;28;19920;-53
2023/04/24 11:20:16;;;;;;;;;;;22.20;59.70;;;;;;5096585;28;19913;-53
2023/04/24 11:22:42;;;;;;;;;;;22.00;60.10;;;;;;5097127;28;19922;-53
2023/04/24 11:25:08;;;;;;;;;;;22.20;59.00;;;;;;5097548;28;19911;-53
2023/04/24 11:27:44;;;;;;;;;;;22.00;56.80;;;;;;5097079;28;20037;-53
2023/04/24 11:30:10;;;;;;;;;;;21.80;57.60;;;;;;5096191;28;20277;-53
2023/04/24 11:32:40;;;;;;;;;;;21.80;57.50;;;;;;5095514;28;19912;-53
2023/04/24 11:35:17;;;;;;;;;;;21.80;59.30;;;;;;5096703;28;19912;-53
2023/04/24 11:37:47;;;;;;;;;;;22.00;57.00;;;;;;5096880;28;19931;-53
2023/04/24 11:40:16;;;;;;;;;;;22.10;57.00;;;;;;5096768;28;20003;-53
2023/04/24 11:42:52;;;;;;;;;;;22.10;58.20;;;;;;5096451;28;19927;-54
2023/04/24 11:45:19;;;;;;;;;;;22.20;58.70;;;;;;5096506;28;19918;-53
2023/04/24 11:47:45;;;;;;;;;;;22.20;59.20;;;;;;5096633;28;20285;-54
2023/04/24 11:50:12;;;;;;;;;;;21.90;58.80;;;;;;5096527;28;19919;-53
2023/04/24 11:52:39;;;;;;;;;;;21.70;56.70;;;;;;5093183;28;20460;-54
2023/04/24 11:55:22;;;;;;;;;;;21.60;58.00;;;;;;5093403;28;19919;-54
2023/04/24 11:57:53;;;;;;;;;;;21.60;59.80;;;;;;5094863;28;19920;-54
2023/04/24 12:00:20;;;;;;;;;;;21.60;58.70;;;;;;5089660;28;19965;-54
2023/04/24 12:02:47;;;;;;;;;;;21.60;59.70;;;;;;5096043;28;19912;-54
2023/04/24 12:05:31;;;;;;;;;;;21.60;58.80;;;;;;5095240;28;19916;-54
2023/04/24 12:07:57;;;;;;;;;;;21.70;59.40;;;;;;5094229;28;19934;-54
2023/04/24 12:10:24;;;;;;;;;;;21.60;60.40;;;;;;5095918;28;19912;-53
2023/04/24 12:12:51;;;;;;;;;;;21.50;61.70;;;;;;5094974;28;20289;-54
2023/04/24 12:15:17;;;;;;;;;;;21.50;61.00;;;;;;5094020;28;20390;-54
2023/04/24 12:17:43;;;;;;;;;;;21.40;59.70;;;;;;5094483;28;19923;-54
2023/04/24 12:20:09;;;;;;;;;;;21.40;59.00;;;;;;5096089;28;20284;-54
2023/04/24 12:22:54;;;;;;;;;;;21.50;61.50;;;;;;5093007;28;19912;-54
2023/04/24 12:25:21;;;;;;;;;;;21.50;59.90;;;;;;5077766;28;19939;-54
2023/04/24 12:27:52;;;;;;;;;;;21.60;60.30;;;;;;5086745;28;19955;-54
2023/04/24 12:30:17;;;;;;;;;;;21.60;59.00;;;;;;5087830;28;19935;-54
2023/04/24 12:32:44;;;;;;;;;;;21.70;60.50;;;;;;5095018;28;19916;-54
2023/04/24 12:35:11;;;;;;;;;;;21.90;58.90;;;;;;5093050;28;19922;-52
2023/04/24 12:37:36;;;;;;;;;;;22.20;59.40;;;;;;5087215;28;20384;-52
2023/04/24 12:40:06;;;;;;;;;;;22.40;58.70;;;;;;5091478;28;19920;-51
2023/04/24 12:42:33;;;;;;;;;;;22.60;58.60;;;;;;5088412;28;20011;-53
2023/04/24 12:45:00;;;;;;;;;;;22.70;58.00;;;;;;5086624;28;19909;-53
2023/04/24 12:47:26;;;;;;;;;;;22.60;57.10;;;;;;5095573;28;19988;-53
2023/04/24 12:49:52;;;;;;;;;;;22.70;57.60;;;;;;5093454;28;19951;-53
2023/04/24 12:52:19;;;;;;;;;;;22.70;59.70;;;;;;5084418;28;19912;-53
2023/04/24 12:54:47;;;;;;;;;;;22.80;58.60;;;;;;5089605;28;19916;-53
2023/04/24 12:57:15;;;;;;;;;;;22.60;58.70;;;;;;5058023;28;20011;-54
2023/04/24 12:59:46;;;;;;;;;;;21.90;59.70;;;;;;5073867;28;19995;-54
2023/04/24 13:02:19;;;;;;;;;;;22.10;58.10;;;;;;5054251;28;19922;-53
2023/04/24 13:04:49;;;;;;;;;;;22.10;58.70;;;;;;5056891;28;19912;-53
2023/04/24 13:07:17;;;;;;;;;;;21.80;59.10;;;;;;5056836;28;19924;-53
2023/04/24 13:09:44;;;;;;;;;;;21.70;59.30;;;;;;5056187;28;19916;-53
2023/04/24 13:12:10;;;;;;;;;;;21.80;58.70;;;;;;5074325;28;20090;-53
2023/04/24 13:14:36;;;;;;;;;;;21.70;59.80;;;;;;5071856;28;19921;-53
2023/04/24 13:17:02;;;;;;;;;;;21.90;61.40;;;;;;5074580;28;19942;-54
2023/04/24 13:19:28;;;;;;;;;;;22.10;61.10;;;;;;5072022;28;19919;-54
2023/04/24 13:21:55;;;;;;;;;;;22.20;60.20;;;;;;5075321;28;19909;-54
2023/04/24 13:24:24;;;;;;;;;;;22.30;60.00;;;;;;5074857;28;19939;-54
2023/04/24 13:26:50;;;;;;;;;;;22.50;58.70;;;;;;5074903;28;19962;-54
2023/04/24 13:29:16;;;;;;;;;;;22.90;60.70;;;;;;5074924;28;19955;-54
2023/04/24 13:31:42;;;;;;;;;;;23.10;58.30;;;;;;5074612;28;19916;-54
2023/04/24 13:34:08;;;;;;;;;;;23.60;59.20;;;;;;5074943;28;19935;-54
2023/04/24 13:36:33;;;;;;;;;;;23.70;56.90;;;;;;5074719;28;19923;-54
2023/04/24 13:38:59;;;;;;;;;;;23.70;56.00;;;;;;5074629;28;19912;-54
2023/04/24 13:41:25;;;;;;;;;;;23.70;57.90;;;;;;5074652;28;20381;-54
2023/04/24 13:43:51;;;;;;;;;;;23.30;56.10;;;;;;5074861;28;19912;-54
2023/04/24 13:46:16;;;;;;;;;;;23.20;56.10;;;;;;5074506;28;20324;-54
2023/04/24 13:48:42;;;;;;;;;;;23.00;56.40;;;;;;5074642;28;19916;-54
2023/04/24 13:51:08;;;;;;;;;;;23.20;58.10;;;;;;5074847;28;19916;-54
2023/04/24 13:53:38;;;;;;;;;;;22.90;55.90;;;;;;5074264;28;19919;-54
2023/04/24 13:56:03;;;;;;;;;;;22.70;56.60;;;;;;5082920;28;19924;-54
2023/04/24 13:58:29;;;;;;;;;;;22.30;60.90;;;;;;5094750;28;19923;-54
2023/04/24 14:00:55;;;;;;;;;;;22.20;60.60;;;;;;5094690;28;19912;-54
2023/04/24 14:03:21;;;;;;;;;;;21.80;62.10;;;;;;5095072;28;19991;-54
2023/04/24 14:05:46;;;;;;;;;;;21.80;62.40;;;;;;5094857;28;19916;-54
2023/04/24 14:08:12;;;;;;;;;;;21.40;64.00;;;;;;5094503;28;20289;-54
2023/04/24 14:10:38;;;;;;;;;;;21.40;66.50;;;;;;5094631;28;19908;-54
2023/04/24 14:13:04;;;;;;;;;;;21.10;67.30;;;;;;5094887;28;20006;-54
2023/04/24 14:15:30;;;;;;;;;;;21.20;64.20;;;;;;5094357;28;19954;-54
2023/04/24 14:17:55;;;;;;;;;;;21.20;64.50;;;;;;5094552;28;19920;-54